createdAt,value
2017-05-23T00:00:00.273Z,15.40
2017-05-23T00:02:28.598Z,15.50
2017-05-23T00:04:56.913Z,15.50
2017-05-23T00:07:25.378Z,15.50
2017-05-23T00:09:54.122Z,15.60
2017-05-23T00:12:22.486Z,15.60
2017-05-23T00:14:50.854Z,15.60
2017-05-23T00:17:19.347Z,15.60
2017-05-23T00:19:47.682Z,15.60
2017-05-23T00:22:16.080Z,15.60
2017-05-23T00:24:44.445Z,15.70
2017-05-23T00:27:12.809Z,15.70
2017-05-23T00:29:45.448Z,15.70
2017-05-23T00:32:13.817Z,15.70
2017-05-23T00:34:42.478Z,15.70
2017-05-23T00:37:11.308Z,15.70
2017-05-23T00:39:39.682Z,15.80
2017-05-23T00:42:08.010Z,15.80
2017-05-23T00:44:36.081Z,15.70
2017-05-23T00:47:04.441Z,15.80
2017-05-23T00:49:32.815Z,15.80
2017-05-23T00:52:01.258Z,15.80
2017-05-23T00:54:29.614Z,15.80
2017-05-23T00:56:57.935Z,15.80
2017-05-23T00:59:26.302Z,15.80
2017-05-23T01:01:54.886Z,15.80
2017-05-23T01:04:23.209Z,15.80
2017-05-23T01:06:51.527Z,15.80
2017-05-23T01:09:20.438Z,15.70
2017-05-23T01:11:48.759Z,15.70
2017-05-23T01:14:17.163Z,15.70
2017-05-23T01:16:45.538Z,15.60
2017-05-23T01:19:14.253Z,15.60
2017-05-23T01:21:42.627Z,15.50
2017-05-23T01:24:10.950Z,15.50
2017-05-23T01:26:39.637Z,15.40
2017-05-23T01:29:08.010Z,15.30
2017-05-23T01:31:36.334Z,15.30
2017-05-23T01:34:06.230Z,15.30
2017-05-23T01:36:35.153Z,15.20
2017-05-23T01:39:03.531Z,15.20
2017-05-23T01:41:31.857Z,15.10
2017-05-23T01:44:00.401Z,15.10
2017-05-23T01:46:28.760Z,15.00
2017-05-23T01:48:57.177Z,15.00
2017-05-23T01:51:25.553Z,15.00
2017-05-23T01:53:54.030Z,14.90
2017-05-23T01:56:22.394Z,14.90
2017-05-23T01:58:50.723Z,14.80
2017-05-23T02:01:19.258Z,14.70
2017-05-23T02:03:47.590Z,14.70
2017-05-23T02:06:15.955Z,14.70
2017-05-23T02:08:44.317Z,14.70
2017-05-23T02:11:13.401Z,14.70
2017-05-23T02:13:41.730Z,14.70
2017-05-23T02:16:10.054Z,14.60
2017-05-23T02:18:38.485Z,14.60
2017-05-23T02:21:06.806Z,14.60
2017-05-23T02:23:35.311Z,14.50
2017-05-23T02:26:03.625Z,14.40
2017-05-23T02:28:31.946Z,14.40
2017-05-23T02:31:00.319Z,14.40
2017-05-23T02:33:28.644Z,14.30
2017-05-23T02:35:58.418Z,14.30
2017-05-23T02:38:26.796Z,14.30
2017-05-23T02:40:55.099Z,14.30
2017-05-23T02:43:23.474Z,14.30
2017-05-23T02:45:51.798Z,14.30
2017-05-23T02:48:20.162Z,14.30
2017-05-23T02:50:48.485Z,14.30
2017-05-23T02:53:17.351Z,14.30
2017-05-23T02:55:45.674Z,14.30
2017-05-23T02:58:14.406Z,14.30
2017-05-23T03:00:42.726Z,14.30
2017-05-23T03:03:11.051Z,14.30
2017-05-23T03:05:39.798Z,14.30
2017-05-23T03:08:08.118Z,14.20
2017-05-23T03:10:36.433Z,14.20
2017-05-23T03:13:05.518Z,14.20
2017-05-23T03:15:33.838Z,14.20
2017-05-23T03:18:02.174Z,14.20
2017-05-23T03:20:29.770Z,14.10
2017-05-23T03:22:58.516Z,14.10
2017-05-23T03:25:26.842Z,14.10
2017-05-23T03:27:55.158Z,14.00
2017-05-23T03:30:24.066Z,14.00
2017-05-23T03:32:52.393Z,14.00
2017-05-23T03:35:20.706Z,14.00
2017-05-23T03:37:49.299Z,14.00
2017-05-23T03:40:17.979Z,13.90
2017-05-23T03:42:46.306Z,14.00
2017-05-23T03:45:14.641Z,14.00
2017-05-23T03:47:43.102Z,14.00
2017-05-23T03:50:11.431Z,14.00
2017-05-23T03:52:39.954Z,14.00
2017-05-23T03:55:08.292Z,13.90
2017-05-23T03:57:36.677Z,13.90
2017-05-23T04:00:04.994Z,13.90
2017-05-23T04:02:33.316Z,13.90
2017-05-23T04:05:02.030Z,13.90
2017-05-23T04:07:30.370Z,13.90
2017-05-23T04:09:58.695Z,13.90
2017-05-23T04:12:27.334Z,13.90
2017-05-23T04:14:55.658Z,13.90
2017-05-23T04:17:23.974Z,13.80
2017-05-23T04:19:52.556Z,13.80
2017-05-23T04:22:20.434Z,13.80
2017-05-23T04:24:48.766Z,13.80
2017-05-23T04:27:17.122Z,13.80
2017-05-23T04:29:45.443Z,13.90
2017-05-23T04:32:14.073Z,13.90
2017-05-23T04:34:42.805Z,13.90
2017-05-23T04:37:11.129Z,13.90
2017-05-23T04:39:39.606Z,13.90
2017-05-23T04:42:07.925Z,13.90
2017-05-23T04:44:36.283Z,13.90
2017-05-23T04:47:04.618Z,13.90
2017-05-23T04:49:32.986Z,13.90
2017-05-23T04:52:01.305Z,13.90
2017-05-23T04:54:29.858Z,13.90
2017-05-23T04:56:58.182Z,14.00
2017-05-23T04:59:26.518Z,14.00
2017-05-23T05:01:58.518Z,14.10
2017-05-23T05:04:27.237Z,14.20
2017-05-23T05:06:55.557Z,14.20
2017-05-23T05:09:23.874Z,14.30
2017-05-23T05:11:52.298Z,14.30
2017-05-23T05:14:20.613Z,14.40
2017-05-23T05:16:48.974Z,14.50
2017-05-23T05:19:17.682Z,14.60
2017-05-23T05:21:46.002Z,14.70
2017-05-23T05:24:14.323Z,14.80
2017-05-23T05:26:43.062Z,14.90
2017-05-23T05:29:11.550Z,15.00
2017-05-23T05:31:39.897Z,15.10
2017-05-23T05:34:08.228Z,15.20
2017-05-23T05:36:37.328Z,15.20
2017-05-23T05:39:05.666Z,15.30
2017-05-23T05:41:33.989Z,15.40
2017-05-23T05:44:02.420Z,15.40
2017-05-23T05:46:30.736Z,15.50
2017-05-23T05:48:59.122Z,15.60
2017-05-23T05:51:28.718Z,15.70
2017-05-23T05:53:57.270Z,15.80
2017-05-23T05:56:25.590Z,15.80
2017-05-23T05:58:53.925Z,15.90
2017-05-23T06:01:22.445Z,16.00
2017-05-23T06:03:50.761Z,16.10
2017-05-23T06:06:19.093Z,16.20
2017-05-23T06:08:47.485Z,16.20
2017-05-23T06:11:15.812Z,16.30
2017-05-23T06:13:51.401Z,16.40
2017-05-23T06:16:19.722Z,16.50
2017-05-23T06:18:48.042Z,16.50
2017-05-23T06:21:16.487Z,16.60
2017-05-23T06:23:44.830Z,16.70
2017-05-23T06:26:13.154Z,16.80
2017-05-23T06:28:42.226Z,16.90
2017-05-23T06:31:10.555Z,17.00
2017-05-23T06:33:39.155Z,17.10
2017-05-23T06:36:07.477Z,17.20
2017-05-23T06:38:35.803Z,17.30
2017-05-23T06:41:04.534Z,17.40
2017-05-23T06:43:32.874Z,17.50
2017-05-23T06:46:01.202Z,17.60
2017-05-23T06:48:29.889Z,17.70
2017-05-23T06:50:58.653Z,17.80
2017-05-23T06:53:27.022Z,17.90
2017-05-23T06:55:55.345Z,18.00
2017-05-23T06:58:24.039Z,18.10
2017-05-23T07:00:52.364Z,18.20
2017-05-23T07:03:20.688Z,18.30
2017-05-23T07:05:49.441Z,18.40
2017-05-23T07:08:17.765Z,18.40
2017-05-23T07:10:46.119Z,18.50
2017-05-23T07:13:14.480Z,18.70
2017-05-23T07:15:42.839Z,18.80
2017-05-23T07:18:11.394Z,18.90
2017-05-23T07:20:39.722Z,19.10
2017-05-23T07:23:08.050Z,19.20
2017-05-23T07:25:36.490Z,19.20
2017-05-23T07:28:04.811Z,19.30
2017-05-23T07:30:38.464Z,19.40
2017-05-23T07:33:06.786Z,19.50
2017-05-23T07:35:35.096Z,19.70
2017-05-23T07:38:03.462Z,19.80
2017-05-23T07:40:31.786Z,20.00
2017-05-23T07:43:00.469Z,20.10
2017-05-23T07:45:28.795Z,20.10
2017-05-23T07:47:57.229Z,20.20
2017-05-23T07:50:25.562Z,20.30
2017-05-23T07:52:54.682Z,20.40
2017-05-23T07:55:23.010Z,20.50
2017-05-23T07:57:51.325Z,20.60
2017-05-23T08:00:19.883Z,20.60
2017-05-23T08:02:48.202Z,20.80
2017-05-23T08:05:16.910Z,20.90
2017-05-23T08:07:44.494Z,20.90
2017-05-23T08:10:12.819Z,21.10
2017-05-23T08:12:41.199Z,21.20
2017-05-23T08:15:09.943Z,21.30
2017-05-23T08:17:38.269Z,21.40
2017-05-23T08:20:06.591Z,21.50
2017-05-23T08:22:34.949Z,21.70
2017-05-23T08:25:03.270Z,21.80
2017-05-23T08:27:31.641Z,21.90
2017-05-23T08:29:59.974Z,22.00
2017-05-23T08:32:28.870Z,22.10
2017-05-23T08:34:57.638Z,22.10
2017-05-23T08:37:25.973Z,22.10
2017-05-23T08:39:54.331Z,22.30
2017-05-23T08:42:22.651Z,22.40
2017-05-23T08:44:51.050Z,22.50
2017-05-23T08:47:19.370Z,22.50
2017-05-23T08:49:47.723Z,22.50
2017-05-23T08:52:16.407Z,22.60
2017-05-23T08:54:44.726Z,22.70
2017-05-23T08:57:13.046Z,22.80
2017-05-23T08:59:41.766Z,22.90
2017-05-23T09:02:10.116Z,23.00
2017-05-23T09:04:38.446Z,23.20
2017-05-23T09:07:07.172Z,23.20
2017-05-23T09:09:35.488Z,23.30
2017-05-23T09:12:03.826Z,23.40
2017-05-23T09:14:32.454Z,23.60
2017-05-23T09:17:00.779Z,23.60
2017-05-23T09:19:29.090Z,23.70
2017-05-23T09:21:57.815Z,23.80
2017-05-23T09:24:26.145Z,23.80
2017-05-23T09:27:00.383Z,23.70
2017-05-23T09:29:28.725Z,23.70
2017-05-23T09:31:57.128Z,23.70
2017-05-23T09:34:25.441Z,23.80
2017-05-23T09:36:57.839Z,23.90
2017-05-23T09:39:26.200Z,24.00
2017-05-23T09:41:54.526Z,24.10
2017-05-23T09:44:23.255Z,24.20
2017-05-23T09:46:51.575Z,24.30
2017-05-23T09:49:19.896Z,24.40
2017-05-23T09:51:48.259Z,24.50
2017-05-23T09:54:16.614Z,24.60
2017-05-23T09:56:44.934Z,24.80
2017-05-23T09:59:13.307Z,25.00
2017-05-23T10:01:41.694Z,25.10
2017-05-23T10:04:09.998Z,25.20
2017-05-23T10:06:38.642Z,25.30
2017-05-23T10:09:06.958Z,25.30
2017-05-23T10:11:35.630Z,25.40
2017-05-23T10:14:03.947Z,25.50
2017-05-23T10:16:32.270Z,25.50
2017-05-23T10:18:59.871Z,25.50
2017-05-23T10:21:28.198Z,25.70
2017-05-23T10:23:56.644Z,25.70
2017-05-23T10:26:24.981Z,25.60
2017-05-23T10:28:53.299Z,25.60
2017-05-23T10:31:22.050Z,25.60
2017-05-23T10:33:50.370Z,25.70
2017-05-23T10:36:18.930Z,25.70
2017-05-23T10:38:47.686Z,25.80
2017-05-23T10:41:15.995Z,25.90
2017-05-23T10:43:44.323Z,25.90
2017-05-23T10:46:12.995Z,26.00
2017-05-23T10:48:41.334Z,25.90
2017-05-23T10:51:09.693Z,25.80
2017-05-23T10:53:38.008Z,25.60
2017-05-23T10:56:07.098Z,25.50
2017-05-23T10:58:35.928Z,25.40
2017-05-23T11:01:04.279Z,25.40
2017-05-23T11:03:33.219Z,25.40
2017-05-23T11:06:01.550Z,25.30
2017-05-23T11:08:29.894Z,25.30
2017-05-23T11:10:58.707Z,25.40
2017-05-23T11:13:27.035Z,25.50
2017-05-23T11:15:55.354Z,25.70
2017-05-23T11:18:23.836Z,25.90
2017-05-23T11:20:52.508Z,25.90
2017-05-23T11:23:20.834Z,26.00
2017-05-23T11:25:49.155Z,26.10
2017-05-23T11:28:16.933Z,26.10
2017-05-23T11:30:45.258Z,26.30
2017-05-23T11:33:13.686Z,26.50
2017-05-23T11:35:42.166Z,26.60
2017-05-23T11:38:10.509Z,26.70
2017-05-23T11:40:38.875Z,26.80
2017-05-23T11:43:07.198Z,26.70
2017-05-23T11:45:36.130Z,26.50
2017-05-23T11:48:04.454Z,26.30
2017-05-23T11:50:32.773Z,26.20
2017-05-23T11:53:01.930Z,26.20
2017-05-23T11:55:30.255Z,26.10
2017-05-23T11:57:58.578Z,26.10
2017-05-23T12:00:27.106Z,26.10
2017-05-23T12:02:55.429Z,26.10
2017-05-23T12:05:23.747Z,26.20
2017-05-23T12:07:52.702Z,26.20
2017-05-23T12:10:21.017Z,26.20
2017-05-23T12:12:49.339Z,26.10
2017-05-23T12:15:18.598Z,26.10
2017-05-23T12:17:46.920Z,26.00
2017-05-23T12:20:15.239Z,26.10
2017-05-23T12:22:44.020Z,26.20
2017-05-23T12:25:12.394Z,26.30
2017-05-23T12:27:40.752Z,26.30
2017-05-23T12:30:09.736Z,26.20
2017-05-23T12:32:39.078Z,26.20
2017-05-23T12:35:07.402Z,26.30
2017-05-23T12:37:36.164Z,26.40
2017-05-23T12:40:04.503Z,26.40
2017-05-23T12:42:32.856Z,26.30
2017-05-23T12:45:01.216Z,26.30
2017-05-23T12:47:29.550Z,26.30
2017-05-23T12:50:03.282Z,26.30
2017-05-23T12:52:31.598Z,26.40
2017-05-23T12:55:00.235Z,26.30
2017-05-23T12:57:28.931Z,26.20
2017-05-23T12:59:57.248Z,26.20
2017-05-23T13:02:25.566Z,26.30
2017-05-23T13:04:53.935Z,26.30
2017-05-23T13:07:22.266Z,26.30
2017-05-23T13:09:55.752Z,26.30
2017-05-23T13:12:24.070Z,26.20
2017-05-23T13:14:52.450Z,26.10
2017-05-23T13:17:20.763Z,26.10
2017-05-23T13:19:49.692Z,26.00
2017-05-23T13:22:18.007Z,26.10
2017-05-23T13:24:46.324Z,26.20
2017-05-23T13:27:14.892Z,26.30
2017-05-23T13:29:43.224Z,26.40
2017-05-23T13:32:11.601Z,26.30
2017-05-23T13:34:39.950Z,26.20
2017-05-23T13:37:08.314Z,26.10
2017-05-23T13:39:36.629Z,26.00
2017-05-23T13:42:05.056Z,25.90
2017-05-23T13:44:33.798Z,25.80
2017-05-23T13:47:02.239Z,25.70
2017-05-23T13:49:30.616Z,25.60
2017-05-23T13:51:59.356Z,25.40
2017-05-23T13:54:27.721Z,25.40
2017-05-23T13:56:56.713Z,25.30
2017-05-23T13:59:25.485Z,25.20
2017-05-23T14:01:53.845Z,25.10
2017-05-23T14:04:22.205Z,25.30
2017-05-23T14:06:50.965Z,25.40
2017-05-23T14:09:19.326Z,25.50
2017-05-23T14:11:47.699Z,25.70
2017-05-23T14:14:15.454Z,25.60
2017-05-23T14:16:43.859Z,25.90
2017-05-23T14:19:12.194Z,25.90
2017-05-23T14:21:41.186Z,26.00
2017-05-23T14:24:09.505Z,26.10
2017-05-23T14:26:37.814Z,26.10
2017-05-23T14:29:06.854Z,26.10
2017-05-23T14:31:35.190Z,26.00
2017-05-23T14:34:03.508Z,26.00
2017-05-23T14:36:32.507Z,26.00
2017-05-23T14:39:00.821Z,25.90
2017-05-23T14:41:29.146Z,25.80
2017-05-23T14:43:58.054Z,25.80
2017-05-23T14:46:26.383Z,25.80
2017-05-23T14:48:54.710Z,25.70
2017-05-23T14:51:23.071Z,25.60
2017-05-23T14:53:51.443Z,25.40
2017-05-23T14:56:19.769Z,25.20
2017-05-23T14:58:48.541Z,25.10
2017-05-23T15:01:16.857Z,25.10
2017-05-23T15:03:45.185Z,25.20
2017-05-23T15:06:13.841Z,25.00
2017-05-23T15:08:42.167Z,24.80
2017-05-23T15:11:10.486Z,24.70
2017-05-23T15:13:43.662Z,24.70
2017-05-23T15:16:12.095Z,24.60
2017-05-23T15:18:40.427Z,24.70
2017-05-23T15:21:08.751Z,24.70
2017-05-23T15:23:37.278Z,24.70
2017-05-23T15:26:06.043Z,24.90
2017-05-23T15:28:34.383Z,25.00
2017-05-23T15:31:02.714Z,25.10
2017-05-23T15:33:31.392Z,25.10
2017-05-23T15:35:59.941Z,25.00
2017-05-23T15:38:28.255Z,24.70
2017-05-23T15:40:56.779Z,24.50
2017-05-23T15:43:25.104Z,24.40
2017-05-23T15:45:53.428Z,24.30
2017-05-23T15:48:21.805Z,24.30
2017-05-23T15:50:50.118Z,24.40
2017-05-23T15:53:18.590Z,24.50
2017-05-23T15:55:46.933Z,24.50
2017-05-23T15:58:15.666Z,24.40
2017-05-23T16:00:45.254Z,24.40
2017-05-23T16:03:13.559Z,24.30
2017-05-23T16:05:41.915Z,24.10
2017-05-23T16:08:10.277Z,24.00
2017-05-23T16:10:38.654Z,23.80
2017-05-23T16:13:07.050Z,23.70
2017-05-23T16:15:35.409Z,23.50
2017-05-23T16:18:03.732Z,23.40
2017-05-23T16:20:31.515Z,23.40
2017-05-23T16:22:59.829Z,23.10
2017-05-23T16:25:28.354Z,23.10
2017-05-23T16:27:56.669Z,23.10
2017-05-23T16:30:24.982Z,23.20
2017-05-23T16:32:53.343Z,23.30
2017-05-23T16:35:21.666Z,23.40
2017-05-23T16:37:50.171Z,23.30
2017-05-23T16:40:18.489Z,23.30
2017-05-23T16:42:46.870Z,23.30
2017-05-23T16:45:15.610Z,23.30
2017-05-23T16:47:43.924Z,23.30
2017-05-23T16:50:12.245Z,23.30
2017-05-23T16:52:41.191Z,23.30
2017-05-23T16:55:09.556Z,23.20
2017-05-23T16:57:37.866Z,23.10
2017-05-23T17:00:06.633Z,22.90
2017-05-23T17:02:34.953Z,22.80
2017-05-23T17:05:03.270Z,22.60
2017-05-23T17:07:31.913Z,22.40
2017-05-23T17:10:00.229Z,22.30
2017-05-23T17:12:28.545Z,22.10
2017-05-23T17:14:57.397Z,22.10
2017-05-23T17:17:25.714Z,22.00
2017-05-23T17:19:54.032Z,22.00
2017-05-23T17:22:22.841Z,22.00
2017-05-23T17:24:51.317Z,21.90
2017-05-23T17:27:19.642Z,21.80
2017-05-23T17:29:47.958Z,21.80
2017-05-23T17:32:16.667Z,21.70
2017-05-23T17:34:44.986Z,21.60
2017-05-23T17:37:13.749Z,21.50
2017-05-23T17:39:42.074Z,21.40
2017-05-23T17:42:10.390Z,21.20
2017-05-23T17:44:39.171Z,21.10
2017-05-23T17:47:07.496Z,21.00
2017-05-23T17:49:35.826Z,20.90
2017-05-23T17:52:05.038Z,20.90
2017-05-23T17:54:33.427Z,20.80
2017-05-23T17:57:01.746Z,20.80
2017-05-23T17:59:30.179Z,20.80
2017-05-23T18:01:59.712Z,20.70
2017-05-23T18:04:28.147Z,20.70
2017-05-23T18:06:56.949Z,20.60
2017-05-23T18:09:25.273Z,20.50
2017-05-23T18:11:53.598Z,20.40
2017-05-23T18:14:21.973Z,20.30
2017-05-23T18:16:50.412Z,20.20
2017-05-23T18:19:18.739Z,20.20
2017-05-23T18:21:47.074Z,20.10
2017-05-23T18:24:15.711Z,20.10
2017-05-23T18:26:44.033Z,20.00
2017-05-23T18:29:12.349Z,19.90
2017-05-23T18:31:40.845Z,19.90
2017-05-23T18:34:09.221Z,19.80
2017-05-23T18:36:37.542Z,19.70
2017-05-23T18:39:12.588Z,19.60
2017-05-23T18:41:40.964Z,19.50
2017-05-23T18:44:09.307Z,19.40
2017-05-23T18:46:38.105Z,19.40
2017-05-23T18:49:06.443Z,19.40
2017-05-23T18:51:34.803Z,19.30
2017-05-23T18:54:03.175Z,19.30
2017-05-23T18:56:31.515Z,19.20
2017-05-23T18:59:00.066Z,19.10
2017-05-23T19:01:28.417Z,19.00
2017-05-23T19:03:57.063Z,18.90
2017-05-23T19:06:25.397Z,18.90
2017-05-23T19:08:53.715Z,18.70
2017-05-23T19:11:22.081Z,18.60
2017-05-23T19:13:50.504Z,18.50
2017-05-23T19:16:18.829Z,18.40
2017-05-23T19:18:47.699Z,18.30
2017-05-23T19:21:16.019Z,18.10
2017-05-23T19:23:44.346Z,18.10
2017-05-23T19:26:13.046Z,18.00
2017-05-23T19:28:41.370Z,18.00
2017-05-23T19:31:09.685Z,17.90
2017-05-23T19:33:38.739Z,17.80
2017-05-23T19:36:07.171Z,17.80
2017-05-23T19:38:35.496Z,17.70
2017-05-23T19:41:04.036Z,17.70
2017-05-23T19:43:32.747Z,17.60
2017-05-23T19:46:01.073Z,17.60
2017-05-23T19:48:29.397Z,17.50
2017-05-23T19:50:57.951Z,17.40
2017-05-23T19:53:26.267Z,17.30
2017-05-23T19:55:54.640Z,17.30
2017-05-23T19:58:22.967Z,17.30
2017-05-23T20:00:51.282Z,17.20
2017-05-23T20:03:20.002Z,17.20
2017-05-23T20:05:48.322Z,17.20
2017-05-23T20:08:16.747Z,17.20
2017-05-23T20:10:45.615Z,17.10
2017-05-23T20:13:13.934Z,17.10
2017-05-23T20:15:42.255Z,17.10
2017-05-23T20:18:10.769Z,17.00
2017-05-23T20:20:39.086Z,17.00
2017-05-23T20:23:07.457Z,17.00
2017-05-23T20:25:35.775Z,16.90
2017-05-23T20:28:04.086Z,16.90
2017-05-23T20:30:32.966Z,16.90
2017-05-23T20:33:01.281Z,16.80
2017-05-23T20:35:29.601Z,16.70
2017-05-23T20:37:58.442Z,16.70
2017-05-23T20:40:26.766Z,16.60
2017-05-23T20:42:55.079Z,16.50
2017-05-23T20:45:23.988Z,16.50
2017-05-23T20:47:52.298Z,16.40
2017-05-23T20:50:20.617Z,16.50
2017-05-23T20:52:48.971Z,16.40
2017-05-23T20:55:17.282Z,16.30
2017-05-23T20:57:45.706Z,16.30
2017-05-23T21:00:14.021Z,16.20
2017-05-23T21:02:42.344Z,16.20
2017-05-23T21:05:11.339Z,16.10
2017-05-23T21:07:40.284Z,16.10
2017-05-23T21:10:08.606Z,16.00
2017-05-23T21:12:37.294Z,16.00
2017-05-23T21:15:05.610Z,15.90
2017-05-23T21:17:33.927Z,15.90
2017-05-23T21:20:02.326Z,15.90
2017-05-23T21:22:31.243Z,15.80
2017-05-23T21:24:59.562Z,15.80
2017-05-23T21:27:27.878Z,15.70
2017-05-23T21:29:56.569Z,15.70
2017-05-23T21:32:24.886Z,15.60
2017-05-23T21:34:53.204Z,15.60
2017-05-23T21:37:21.907Z,15.60
2017-05-23T21:39:50.223Z,15.50
2017-05-23T21:42:18.540Z,15.50
2017-05-23T21:44:47.694Z,15.40
2017-05-23T21:47:16.007Z,15.40
2017-05-23T21:49:44.318Z,15.30
2017-05-23T21:52:12.679Z,15.30
2017-05-23T21:54:40.994Z,15.20
2017-05-23T21:57:08.578Z,15.20
2017-05-23T21:59:36.886Z,15.20
2017-05-23T22:02:05.642Z,15.20
2017-05-23T22:04:33.963Z,15.10
2017-05-23T22:07:02.278Z,15.10
2017-05-23T22:09:31.110Z,15.00
2017-05-23T22:11:59.423Z,15.00
2017-05-23T22:14:27.950Z,14.90
2017-05-23T22:16:56.261Z,14.90
2017-05-23T22:19:24.578Z,14.80
2017-05-23T22:21:53.225Z,14.70
2017-05-23T22:24:21.538Z,14.70
2017-05-23T22:26:50.230Z,14.70
2017-05-23T22:29:18.538Z,14.70
2017-05-23T22:31:46.848Z,14.70
2017-05-23T22:34:15.318Z,14.70
2017-05-23T22:36:43.937Z,14.70
2017-05-23T22:39:12.251Z,14.60
2017-05-23T22:41:41.206Z,14.50
2017-05-23T22:44:09.522Z,14.50
2017-05-23T22:46:37.838Z,14.50
2017-05-23T22:49:06.678Z,14.50
2017-05-23T22:51:34.996Z,14.40
2017-05-23T22:54:03.318Z,14.40
2017-05-23T22:56:31.970Z,14.40
2017-05-23T22:59:00.282Z,14.40
2017-05-23T23:01:28.597Z,14.40
2017-05-23T23:03:57.094Z,14.40
2017-05-23T23:06:25.469Z,14.40
2017-05-23T23:08:53.786Z,14.40
2017-05-23T23:11:22.106Z,14.30
2017-05-23T23:13:50.466Z,14.30
2017-05-23T23:16:18.779Z,14.30
2017-05-23T23:18:47.418Z,14.30
2017-05-23T23:21:15.734Z,14.30
2017-05-23T23:23:44.045Z,14.30
2017-05-23T23:26:12.894Z,14.30
2017-05-23T23:28:41.217Z,14.20
2017-05-23T23:31:09.529Z,14.20
2017-05-23T23:33:37.894Z,14.20
2017-05-23T23:36:06.206Z,14.10
2017-05-23T23:38:36.294Z,14.10
2017-05-23T23:41:04.609Z,14.10
2017-05-23T23:43:32.926Z,14.00
2017-05-23T23:46:01.547Z,14.00
2017-05-23T23:48:29.862Z,14.00
2017-05-23T23:51:02.517Z,14.00
2017-05-23T23:53:30.839Z,14.00
2017-05-23T23:55:59.150Z,13.90
2017-05-23T23:58:27.834Z,14.00
